createdAt,value
2023-05-01T00:00:12.063Z,10.90
2023-05-01T00:03:36.273Z,11.00
2023-05-01T00:06:39.386Z,10.20
2023-05-01T00:09:42.282Z,11.20
2023-05-01T00:12:45.035Z,11.90
2023-05-01T00:15:48.925Z,10.80
2023-05-01T00:18:52.558Z,10.20
2023-05-01T00:21:55.265Z,11.10
2023-05-01T00:24:58.026Z,10.70
2023-05-01T00:28:00.968Z,10.40
2023-05-01T00:31:03.937Z,11.80
2023-05-01T00:34:06.763Z,11.40
2023-05-01T00:37:09.617Z,10.90
2023-05-01T00:40:12.600Z,10.70
2023-05-01T00:43:15.661Z,12.10
2023-05-01T00:46:19.206Z,12.60
2023-05-01T00:49:22.114Z,12.50
2023-05-01T00:52:25.087Z,11.30
2023-05-01T00:55:28.413Z,11.90
2023-05-01T00:58:31.543Z,12.50
2023-05-01T01:04:37.589Z,13.80
2023-05-01T01:07:55.825Z,12.10
2023-05-01T01:11:21.639Z,13.20
2023-05-01T01:14:31.220Z,14.30
2023-05-01T01:17:53.564Z,13.30
2023-05-01T01:21:32.180Z,18.30
2023-05-01T01:24:57.522Z,15.90
2023-05-01T01:28:27.609Z,19.20
2023-05-01T01:31:45.882Z,16.10
2023-05-01T01:34:55.245Z,13.40
2023-05-01T01:38:07.304Z,13.50
2023-05-01T01:41:18.030Z,13.30
2023-05-01T01:44:30.859Z,13.40
2023-05-01T01:47:35.314Z,24.60
2023-05-01T01:50:39.235Z,30.90
2023-05-01T01:53:50.574Z,54.20
2023-05-01T01:56:58.440Z,32.20
2023-05-01T02:00:01.181Z,25.20
2023-05-01T02:03:05.997Z,16.70
2023-05-01T02:06:11.379Z,15.20
2023-05-01T02:09:17.104Z,18.90
2023-05-01T02:12:22.975Z,16.20
2023-05-01T02:15:28.059Z,16.10
2023-05-01T02:18:31.642Z,14.80
2023-05-01T02:21:37.430Z,15.10
2023-05-01T02:24:43.734Z,14.60
2023-05-01T02:28:12.424Z,14.00
2023-05-01T02:31:15.323Z,12.70
2023-05-01T02:34:18.112Z,15.10
2023-05-01T02:37:21.273Z,15.10
2023-05-01T02:40:24.773Z,14.70
2023-05-01T02:43:31.022Z,13.60
2023-05-01T02:46:37.455Z,13.40
2023-05-01T02:49:42.194Z,14.80
2023-05-01T02:52:46.405Z,16.00
2023-05-01T02:56:04.464Z,15.80
2023-05-01T02:59:07.168Z,16.90
2023-05-01T03:02:09.941Z,16.50
2023-05-01T03:05:12.689Z,15.30
2023-05-01T03:08:15.682Z,15.40
2023-05-01T03:11:18.496Z,15.00
2023-05-01T03:14:21.215Z,15.10
2023-05-01T03:17:24.180Z,16.50
2023-05-01T03:20:27.611Z,14.30
2023-05-01T03:23:30.681Z,16.70
2023-05-01T03:26:34.118Z,17.30
2023-05-01T03:29:39.690Z,17.40
2023-05-01T03:32:42.445Z,17.80
2023-05-01T03:36:00.594Z,17.90
2023-05-01T03:39:04.984Z,16.30
2023-05-01T03:42:43.090Z,18.20
2023-05-01T03:45:52.314Z,18.10
2023-05-01T03:48:55.622Z,19.00
2023-05-01T03:51:58.635Z,19.40
2023-05-01T03:55:01.551Z,19.90
2023-05-01T03:58:17.442Z,18.50
2023-05-01T04:01:20.642Z,18.00
2023-05-01T04:04:24.747Z,20.40
2023-05-01T04:07:31.907Z,20.20
2023-05-01T04:10:34.715Z,20.00
2023-05-01T04:13:40.229Z,18.20
2023-05-01T04:17:51.567Z,20.10
2023-05-01T04:21:05.839Z,19.10
2023-05-01T04:24:08.941Z,20.40
2023-05-01T04:27:11.909Z,26.60
2023-05-01T04:30:14.702Z,36.00
2023-05-01T04:33:17.670Z,42.20
2023-05-01T04:36:21.074Z,38.00
2023-05-01T04:39:24.213Z,42.20
2023-05-01T04:42:31.625Z,37.00
2023-05-01T04:45:34.847Z,36.10
2023-05-01T04:48:38.084Z,26.30
2023-05-01T04:51:41.485Z,22.10
2023-05-01T04:54:45.779Z,18.20
2023-05-01T04:57:48.910Z,15.90
2023-05-01T05:00:51.722Z,15.90
2023-05-01T05:03:57.253Z,16.30
2023-05-01T05:07:00.496Z,14.00
2023-05-01T05:10:12.121Z,15.10
2023-05-01T05:13:15.881Z,15.10
2023-05-01T05:16:18.943Z,14.80
2023-05-01T05:19:22.738Z,15.50
2023-05-01T05:22:26.258Z,15.70
2023-05-01T05:25:47.903Z,12.90
2023-05-01T05:28:51.065Z,13.80
2023-05-01T05:31:54.047Z,13.30
2023-05-01T05:34:57.433Z,15.50
2023-05-01T05:38:00.983Z,13.40
2023-05-01T05:41:04.715Z,14.50
2023-05-01T05:44:07.598Z,13.70
2023-05-01T05:47:10.770Z,14.30
2023-05-01T05:50:13.614Z,13.70
2023-05-01T05:53:17.122Z,12.80
2023-05-01T05:56:20.261Z,11.80
2023-05-01T05:59:23.544Z,11.10
2023-05-01T06:02:27.075Z,11.30
2023-05-01T06:05:30.191Z,11.20
2023-05-01T06:08:35.406Z,12.10
2023-05-01T06:11:38.507Z,12.20
2023-05-01T06:14:41.360Z,11.40
2023-05-01T06:17:45.052Z,11.70
2023-05-01T06:20:47.908Z,11.50
2023-05-01T06:23:51.090Z,11.00
2023-05-01T06:27:04.245Z,11.80
2023-05-01T06:30:09.397Z,11.00
2023-05-01T06:33:13.414Z,11.70
2023-05-01T06:36:16.630Z,10.90
2023-05-01T06:39:19.606Z,11.40
2023-05-01T06:42:23.075Z,10.30
2023-05-01T06:45:26.367Z,10.50
2023-05-01T06:48:29.205Z,9.90
2023-05-01T06:51:32.307Z,9.50
2023-05-01T06:54:35.075Z,9.80
2023-05-01T06:57:38.083Z,9.60
2023-05-01T07:00:41.143Z,8.90
2023-05-01T07:03:44.526Z,9.50
2023-05-01T07:06:47.466Z,7.90
2023-05-01T07:09:50.426Z,9.20
2023-05-01T07:12:53.248Z,8.30
2023-05-01T07:15:56.100Z,7.80
2023-05-01T07:18:58.944Z,7.40
2023-05-01T07:22:01.743Z,8.00
2023-05-01T07:25:05.082Z,7.50
2023-05-01T07:28:08.376Z,7.50
2023-05-01T07:31:11.269Z,6.00
2023-05-01T07:34:14.220Z,6.30
2023-05-01T07:37:16.957Z,6.80
2023-05-01T07:40:19.656Z,7.20
2023-05-01T07:43:23.130Z,6.60
2023-05-01T07:46:26.028Z,6.40
2023-05-01T07:49:28.977Z,5.70
2023-05-01T07:52:31.745Z,4.80
2023-05-01T07:55:34.538Z,4.60
2023-05-01T07:58:37.798Z,6.60
2023-05-01T08:01:41.658Z,5.10
2023-05-01T08:04:46.166Z,3.60
2023-05-01T08:07:49.157Z,3.10
2023-05-01T08:10:52.392Z,4.90
2023-05-01T08:13:55.749Z,3.40
2023-05-01T08:16:58.519Z,3.90
2023-05-01T08:20:01.539Z,3.80
2023-05-01T08:23:04.744Z,4.20
2023-05-01T08:26:07.523Z,3.30
2023-05-01T08:29:10.337Z,4.30
2023-05-01T08:32:15.454Z,4.30
2023-05-01T08:35:18.169Z,3.70
2023-05-01T08:38:20.942Z,4.00
2023-05-01T08:41:23.949Z,3.80
2023-05-01T08:44:28.090Z,4.00
2023-05-01T08:47:31.774Z,3.30
2023-05-01T08:50:38.749Z,5.80
2023-05-01T08:53:43.634Z,4.20
2023-05-01T08:56:51.426Z,4.20
2023-05-01T08:59:56.495Z,4.70
2023-05-01T09:03:02.226Z,3.90
2023-05-01T09:06:08.051Z,4.40
2023-05-01T09:09:10.974Z,4.20
2023-05-01T09:12:21.479Z,4.10
2023-05-01T09:15:27.049Z,3.70
2023-05-01T09:18:31.284Z,4.40
2023-05-01T09:21:34.534Z,3.90
2023-05-01T09:24:37.619Z,5.00
2023-05-01T09:27:40.614Z,4.50
2023-05-01T09:30:43.454Z,3.80
2023-05-01T09:33:54.919Z,5.20
2023-05-01T09:36:57.647Z,4.70
2023-05-01T09:40:10.752Z,4.80
2023-05-01T09:43:13.706Z,4.90
2023-05-01T09:46:16.966Z,4.80
2023-05-01T09:49:19.805Z,4.80
2023-05-01T09:52:33.730Z,4.60
2023-05-01T09:55:36.529Z,5.20
2023-05-01T09:58:39.335Z,4.40
2023-05-01T10:01:46.526Z,4.80
2023-05-01T10:04:49.542Z,5.70
2023-05-01T10:07:57.426Z,4.80
2023-05-01T10:11:07.717Z,6.10
2023-05-01T10:14:11.167Z,5.00
2023-05-01T10:17:21.253Z,6.10
2023-05-01T10:20:24.681Z,4.60
2023-05-01T10:23:27.649Z,4.50
2023-05-01T10:26:30.381Z,4.30
2023-05-01T10:29:36.815Z,4.40
2023-05-01T10:32:43.041Z,4.10
2023-05-01T10:35:56.105Z,4.40
2023-05-01T10:38:59.230Z,4.40
2023-05-01T10:42:14.899Z,3.50
2023-05-01T10:45:36.390Z,3.70
2023-05-01T10:48:47.985Z,3.40
2023-05-01T10:51:58.097Z,3.60
2023-05-01T10:55:35.661Z,3.20
2023-05-01T11:01:45.873Z,4.10
2023-05-01T11:04:53.479Z,2.90
2023-05-01T11:08:31.652Z,3.30
2023-05-01T11:11:34.348Z,3.60
2023-05-01T11:15:05.673Z,3.40
2023-05-01T11:18:08.963Z,3.10
2023-05-01T11:21:11.860Z,2.90
2023-05-01T11:24:14.745Z,3.40
2023-05-01T11:27:18.283Z,3.00
2023-05-01T11:30:21.918Z,3.00
2023-05-01T11:33:26.228Z,2.70
2023-05-01T11:36:30.723Z,2.80
2023-05-01T11:39:33.434Z,2.40
2023-05-01T11:42:36.388Z,3.10
2023-05-01T11:45:39.278Z,3.30
2023-05-01T11:48:49.558Z,2.80
2023-05-01T11:51:59.726Z,3.10
2023-05-01T11:55:04.057Z,3.50
2023-05-01T11:58:07.480Z,2.90
2023-05-01T12:01:12.869Z,2.90
2023-05-01T12:04:26.490Z,3.00
2023-05-01T12:07:30.823Z,2.70
2023-05-01T12:10:35.501Z,2.80
2023-05-01T12:13:39.841Z,2.80
2023-05-01T12:16:43.345Z,2.30
2023-05-01T12:19:48.915Z,2.20
2023-05-01T12:22:51.958Z,2.80
2023-05-01T12:25:54.780Z,2.70
2023-05-01T12:29:01.409Z,2.70
2023-05-01T12:32:04.349Z,2.30
2023-05-01T12:35:15.582Z,2.20
2023-05-01T12:38:23.055Z,2.30
2023-05-01T12:41:37.897Z,2.60
2023-05-01T12:44:41.396Z,2.60
2023-05-01T12:47:45.166Z,2.60
2023-05-01T12:50:54.645Z,2.70
2023-05-01T12:53:58.297Z,1.80
2023-05-01T12:57:09.352Z,2.40
2023-05-01T13:00:13.322Z,2.60
2023-05-01T13:03:28.350Z,2.40
2023-05-01T13:06:36.003Z,1.60
2023-05-01T13:09:39.454Z,2.10
2023-05-01T13:12:46.348Z,2.10
2023-05-01T13:15:49.330Z,2.00
2023-05-01T13:18:52.797Z,2.20
2023-05-01T13:21:57.610Z,1.90
2023-05-01T13:25:03.157Z,2.10
2023-05-01T13:28:07.797Z,1.70
2023-05-01T13:31:15.100Z,2.10
2023-05-01T13:34:24.650Z,1.90
2023-05-01T13:37:28.372Z,1.90
2023-05-01T13:40:34.266Z,2.20
2023-05-01T13:43:37.798Z,1.60
2023-05-01T13:46:45.392Z,2.20
2023-05-01T13:49:48.829Z,1.80
2023-05-01T13:52:51.638Z,2.20
2023-05-01T13:55:54.501Z,1.90
2023-05-01T13:58:59.812Z,1.90
2023-05-01T14:02:13.535Z,1.80
2023-05-01T14:05:16.898Z,2.60
2023-05-01T14:08:27.311Z,1.90
2023-05-01T14:11:30.732Z,1.90
2023-05-01T14:14:36.319Z,2.80
2023-05-01T14:17:39.280Z,2.30
2023-05-01T14:20:46.805Z,1.80
2023-05-01T14:23:50.547Z,2.20
2023-05-01T14:26:53.273Z,2.20
2023-05-01T14:29:56.255Z,2.20
2023-05-01T14:33:03.806Z,2.30
2023-05-01T14:36:06.845Z,2.40
2023-05-01T14:39:10.128Z,2.20
2023-05-01T14:42:12.867Z,2.30
2023-05-01T14:45:17.290Z,2.30
2023-05-01T14:48:25.008Z,2.00
2023-05-01T14:51:29.321Z,2.00
2023-05-01T14:54:41.925Z,2.80
2023-05-01T14:57:45.151Z,2.30
2023-05-01T15:00:47.852Z,3.00
2023-05-01T15:03:50.734Z,2.40
2023-05-01T15:06:53.919Z,2.20
2023-05-01T15:09:56.794Z,3.70
2023-05-01T15:12:59.537Z,3.10
2023-05-01T15:16:03.259Z,8.70
2023-05-01T15:19:06.169Z,3.50
2023-05-01T15:22:09.041Z,2.70
2023-05-01T15:25:11.834Z,2.00
2023-05-01T15:28:14.775Z,2.50
2023-05-01T15:31:19.435Z,3.00
2023-05-01T15:34:22.360Z,3.30
2023-05-01T15:37:25.557Z,2.60
2023-05-01T15:40:28.274Z,2.30
2023-05-01T15:43:31.092Z,2.50
2023-05-01T15:46:34.637Z,2.30
2023-05-01T15:49:37.477Z,2.30
2023-05-01T15:52:40.246Z,3.10
2023-05-01T15:55:42.952Z,2.50
2023-05-01T15:58:45.672Z,2.90
2023-05-01T16:01:48.802Z,2.20
2023-05-01T16:04:52.832Z,2.70
2023-05-01T16:07:56.241Z,2.20
2023-05-01T16:10:59.084Z,2.70
2023-05-01T16:14:02.347Z,2.60
2023-05-01T16:17:06.799Z,2.60
2023-05-01T16:20:14.389Z,1.60
2023-05-01T16:23:17.489Z,2.30
2023-05-01T16:26:27.943Z,2.00
2023-05-01T16:29:35.213Z,2.30
2023-05-01T16:32:39.701Z,2.00
2023-05-01T16:35:43.064Z,2.40
2023-05-01T16:38:46.903Z,3.80
2023-05-01T16:41:54.168Z,3.20
2023-05-01T16:44:57.146Z,3.00
2023-05-01T16:48:00.120Z,2.60
2023-05-01T16:51:06.100Z,3.00
2023-05-01T16:54:08.898Z,2.20
2023-05-01T16:57:11.660Z,2.50
2023-05-01T17:00:15.960Z,1.80
2023-05-01T17:03:18.797Z,2.50
2023-05-01T17:06:21.692Z,2.50
2023-05-01T17:09:24.554Z,2.90
2023-05-01T17:12:31.414Z,4.00
2023-05-01T17:15:34.150Z,3.90
2023-05-01T17:18:36.865Z,3.60
2023-05-01T17:21:39.888Z,3.60
2023-05-01T17:24:42.639Z,3.20
2023-05-01T17:27:45.577Z,4.10
2023-05-01T17:30:48.401Z,3.60
2023-05-01T17:33:51.244Z,4.10
2023-05-01T17:36:55.265Z,3.90
2023-05-01T17:40:00.387Z,3.70
2023-05-01T17:43:03.553Z,3.70
2023-05-01T17:46:06.551Z,3.30
2023-05-01T17:49:09.523Z,3.50
2023-05-01T17:52:12.395Z,4.20
2023-05-01T17:55:17.945Z,3.50
2023-05-01T17:58:21.458Z,3.80
2023-05-01T18:01:24.245Z,3.70
2023-05-01T18:04:27.045Z,4.10
2023-05-01T18:07:32.632Z,4.60
2023-05-01T18:10:35.413Z,4.70
2023-05-01T18:13:39.780Z,5.30
2023-05-01T18:16:43.294Z,6.40
2023-05-01T18:19:46.246Z,7.50
2023-05-01T18:22:49.041Z,13.50
2023-05-01T18:25:52.132Z,14.10
2023-05-01T18:28:55.589Z,10.70
2023-05-01T18:31:58.716Z,6.80
2023-05-01T18:35:02.955Z,6.30
2023-05-01T18:38:05.803Z,4.90
2023-05-01T18:41:08.592Z,4.80
2023-05-01T18:44:11.385Z,4.90
2023-05-01T18:47:14.206Z,16.20
2023-05-01T18:50:21.591Z,7.50
2023-05-01T18:53:25.219Z,5.90
2023-05-01T18:56:28.334Z,5.70
2023-05-01T18:59:32.092Z,5.40
2023-05-01T19:02:34.892Z,6.20
2023-05-01T19:05:37.890Z,5.30
2023-05-01T19:08:41.270Z,6.00
2023-05-01T19:11:44.033Z,11.50
2023-05-01T19:14:47.004Z,13.90
2023-05-01T19:17:50.044Z,10.80
2023-05-01T19:20:52.921Z,9.40
2023-05-01T19:23:56.519Z,9.40
2023-05-01T19:27:00.521Z,12.60
2023-05-01T19:30:04.099Z,21.40
2023-05-01T19:33:07.092Z,22.90
2023-05-01T19:36:09.937Z,38.60
2023-05-01T19:39:12.913Z,56.50
2023-05-01T19:42:16.091Z,36.80
2023-05-01T19:45:18.885Z,39.00
2023-05-01T19:48:22.094Z,15.30
2023-05-01T19:51:24.826Z,16.80
2023-05-01T19:54:28.574Z,12.80
2023-05-01T19:57:32.315Z,22.80
2023-05-01T20:00:35.762Z,27.90
2023-05-01T20:03:38.824Z,27.00
2023-05-01T20:06:41.650Z,24.40
2023-05-01T20:09:44.524Z,27.70
2023-05-01T20:12:47.550Z,23.50
2023-05-01T20:15:51.485Z,23.20
2023-05-01T20:18:54.353Z,19.40
2023-05-01T20:21:57.073Z,16.00
2023-05-01T20:24:59.996Z,15.20
2023-05-01T20:28:03.807Z,13.80
2023-05-01T20:31:06.674Z,13.00
2023-05-01T20:34:09.690Z,11.80
2023-05-01T20:37:12.445Z,11.70
2023-05-01T20:40:16.558Z,11.10
2023-05-01T20:43:19.619Z,11.60
2023-05-01T20:46:23.033Z,10.60
2023-05-01T20:49:25.902Z,9.30
2023-05-01T20:52:29.302Z,10.80
2023-05-01T20:55:32.124Z,10.70
2023-05-01T20:58:36.259Z,9.50
2023-05-01T21:01:39.244Z,11.20
2023-05-01T21:04:43.014Z,11.80
2023-05-01T21:07:45.844Z,12.60
2023-05-01T21:10:48.588Z,11.70
2023-05-01T21:13:51.450Z,11.90
2023-05-01T21:16:54.920Z,12.40
2023-05-01T21:19:57.986Z,11.80
2023-05-01T21:23:02.034Z,11.00
2023-05-01T21:26:04.827Z,12.50
2023-05-01T21:29:07.778Z,13.80
2023-05-01T21:32:10.534Z,15.30
2023-05-01T21:35:16.670Z,15.10
2023-05-01T21:38:20.934Z,75.00
2023-05-01T21:41:24.194Z,246.00
2023-05-01T21:44:31.044Z,233.80
2023-05-01T21:47:48.468Z,171.10
2023-05-01T21:50:51.432Z,142.60
2023-05-01T21:53:55.596Z,123.90
2023-05-01T21:56:59.936Z,74.00
2023-05-01T22:00:04.753Z,51.80
2023-05-01T22:03:10.981Z,38.00
2023-05-01T22:06:13.896Z,23.10
2023-05-01T22:09:16.654Z,15.40
2023-05-01T22:12:20.157Z,15.30
2023-05-01T22:15:22.896Z,13.20
2023-05-01T22:18:26.920Z,11.00
2023-05-01T22:21:31.800Z,10.70
2023-05-01T22:24:36.251Z,11.60
2023-05-01T22:27:39.232Z,10.30
2023-05-01T22:30:44.328Z,11.10
2023-05-01T22:33:47.846Z,11.50
2023-05-01T22:36:50.600Z,10.80
2023-05-01T22:39:54.006Z,11.80
2023-05-01T22:42:57.161Z,10.60
2023-05-01T22:46:00.170Z,10.70
2023-05-01T22:49:04.300Z,9.90
2023-05-01T22:52:07.261Z,10.00
2023-05-01T22:55:10.556Z,9.40
2023-05-01T22:58:13.303Z,10.50
2023-05-01T23:01:16.212Z,9.00
2023-05-01T23:04:19.102Z,10.00
2023-05-01T23:07:22.299Z,9.80
2023-05-01T23:10:27.366Z,9.50
2023-05-01T23:13:32.281Z,9.40
2023-05-01T23:16:41.634Z,9.10
2023-05-01T23:19:45.649Z,8.50
2023-05-01T23:22:48.506Z,9.70
2023-05-01T23:25:51.318Z,10.20
2023-05-01T23:28:54.058Z,10.00
2023-05-01T23:31:57.129Z,10.80
2023-05-01T23:35:03.798Z,11.60
2023-05-01T23:38:06.548Z,10.60
2023-05-01T23:41:09.714Z,11.30
2023-05-01T23:44:12.602Z,11.00
2023-05-01T23:47:15.500Z,11.20
2023-05-01T23:50:18.402Z,10.90
2023-05-01T23:53:21.396Z,10.20
2023-05-01T23:56:24.324Z,11.80
2023-05-01T23:59:27.098Z,11.50
